createdAt,value
2018-04-13T00:00:50.152Z,75.20
2018-04-13T00:03:17.785Z,75.00
2018-04-13T00:05:45.419Z,74.76
2018-04-13T00:08:13.057Z,74.53
2018-04-13T00:10:40.752Z,74.23
2018-04-13T00:13:08.732Z,74.13
2018-04-13T00:15:36.344Z,73.99
2018-04-13T00:18:03.986Z,73.85
2018-04-13T00:20:31.600Z,73.69
2018-04-13T00:22:59.264Z,73.54
2018-04-13T00:25:26.884Z,73.46
2018-04-13T00:27:54.528Z,73.29
2018-04-13T00:30:22.147Z,73.15
2018-04-13T00:32:49.791Z,73.07
2018-04-13T00:35:18.398Z,72.90
2018-04-13T00:37:46.053Z,72.80
2018-04-13T00:40:13.728Z,72.67
2018-04-13T00:42:41.393Z,72.67
2018-04-13T00:45:09.055Z,72.64
2018-04-13T00:47:36.706Z,72.50
2018-04-13T00:50:04.343Z,72.44
2018-04-13T00:52:31.967Z,72.39
2018-04-13T00:54:59.708Z,72.32
2018-04-13T00:57:27.330Z,72.25
2018-04-13T00:59:54.968Z,72.20
2018-04-13T01:02:22.578Z,72.19
2018-04-13T01:04:50.242Z,72.17
2018-04-13T01:07:17.868Z,72.13
2018-04-13T01:09:45.571Z,72.10
2018-04-13T01:12:13.187Z,72.06
2018-04-13T01:14:40.833Z,72.05
2018-04-13T01:17:08.455Z,72.03
2018-04-13T01:19:36.099Z,71.99
2018-04-13T01:22:03.783Z,71.92
2018-04-13T01:24:31.436Z,71.85
2018-04-13T01:26:59.099Z,71.79
2018-04-13T01:29:26.744Z,71.69
2018-04-13T01:31:54.430Z,71.70
2018-04-13T01:34:22.067Z,71.71
2018-04-13T01:36:49.687Z,71.75
2018-04-13T01:39:17.342Z,71.77
2018-04-13T01:41:44.982Z,71.76
2018-04-13T01:44:12.642Z,71.80
2018-04-13T01:46:40.279Z,71.86
2018-04-13T01:49:07.922Z,71.80
2018-04-13T01:51:35.635Z,71.87
2018-04-13T01:54:03.255Z,71.95
2018-04-13T01:56:30.949Z,71.99
2018-04-13T01:58:58.567Z,72.00
2018-04-13T02:01:26.275Z,72.06
2018-04-13T02:03:53.886Z,72.06
2018-04-13T02:06:21.612Z,72.11
2018-04-13T02:08:49.265Z,72.07
2018-04-13T02:11:16.938Z,72.08
2018-04-13T02:13:44.693Z,71.98
2018-04-13T02:16:12.331Z,71.95
2018-04-13T02:18:40.119Z,71.92
2018-04-13T02:21:07.791Z,71.94
2018-04-13T02:23:35.406Z,71.98
2018-04-13T02:26:03.120Z,71.94
2018-04-13T02:28:30.738Z,71.94
2018-04-13T02:30:58.379Z,71.95
2018-04-13T02:33:25.999Z,71.96
2018-04-13T02:35:53.663Z,71.93
2018-04-13T02:38:21.423Z,71.95
2018-04-13T02:40:49.062Z,71.97
2018-04-13T02:43:16.674Z,71.99
2018-04-13T02:45:44.331Z,72.05
2018-04-13T02:48:11.979Z,72.08
2018-04-13T02:50:39.645Z,72.08
2018-04-13T02:53:07.280Z,72.07
2018-04-13T02:55:34.895Z,72.05
2018-04-13T02:58:02.627Z,72.06
2018-04-13T03:00:30.287Z,72.01
2018-04-13T03:02:57.950Z,71.92
2018-04-13T03:05:25.607Z,71.89
2018-04-13T03:07:53.250Z,71.81
2018-04-13T03:10:20.871Z,71.82
2018-04-13T03:12:48.602Z,71.79
2018-04-13T03:15:16.265Z,71.74
2018-04-13T03:17:43.931Z,71.72
2018-04-13T03:20:11.542Z,71.68
2018-04-13T03:22:39.245Z,71.66
2018-04-13T03:25:06.859Z,71.64
2018-04-13T03:27:34.499Z,71.62
2018-04-13T03:30:02.120Z,71.61
2018-04-13T03:32:29.755Z,71.62
2018-04-13T03:34:57.462Z,71.62
2018-04-13T03:37:25.128Z,71.64
2018-04-13T03:39:52.787Z,71.64
2018-04-13T03:42:20.422Z,71.64
2018-04-13T03:44:48.038Z,71.61
2018-04-13T03:47:15.674Z,71.57
2018-04-13T03:49:44.045Z,71.52
2018-04-13T03:52:11.714Z,71.47
2018-04-13T03:54:39.334Z,71.42
2018-04-13T03:57:07.043Z,71.36
2018-04-13T03:59:34.707Z,71.30
2018-04-13T04:02:02.347Z,71.23
2018-04-13T04:04:30.033Z,71.15
2018-04-13T04:06:57.670Z,71.14
2018-04-13T04:09:25.282Z,71.09
2018-04-13T04:11:52.897Z,71.03
2018-04-13T04:14:20.579Z,70.99
2018-04-13T04:16:48.200Z,71.00
2018-04-13T04:19:15.898Z,71.03
2018-04-13T04:21:55.435Z,71.02
2018-04-13T04:24:34.992Z,70.99
2018-04-13T04:27:02.606Z,71.01
2018-04-13T04:29:30.244Z,71.03
2018-04-13T04:31:57.861Z,71.03
2018-04-13T04:34:25.511Z,71.02
2018-04-13T04:36:53.187Z,70.99
2018-04-13T04:39:20.860Z,70.99
2018-04-13T04:41:48.475Z,70.95
2018-04-13T04:44:16.183Z,70.88
2018-04-13T04:46:43.799Z,70.81
2018-04-13T04:49:11.603Z,70.79
2018-04-13T04:51:39.215Z,70.76
2018-04-13T04:54:06.935Z,70.74
2018-04-13T04:56:34.554Z,70.69
2018-04-13T04:59:02.173Z,70.66
2018-04-13T05:01:29.816Z,70.65
2018-04-13T05:03:57.435Z,70.65
2018-04-13T05:06:25.146Z,70.69
2018-04-13T05:08:52.812Z,70.65
2018-04-13T05:11:20.474Z,70.62
2018-04-13T05:13:48.139Z,70.62
2018-04-13T05:16:15.785Z,70.61
2018-04-13T05:18:43.406Z,70.62
2018-04-13T05:21:11.048Z,70.57
2018-04-13T05:23:38.667Z,70.52
2018-04-13T05:26:06.314Z,70.44
2018-04-13T05:28:34.011Z,70.42
2018-04-13T05:31:01.769Z,70.35
2018-04-13T05:33:29.387Z,70.27
2018-04-13T05:35:57.035Z,70.09
2018-04-13T05:38:24.654Z,70.05
2018-04-13T05:40:52.326Z,69.88
2018-04-13T05:43:19.942Z,69.77
2018-04-13T05:45:47.651Z,69.70
2018-04-13T05:48:15.267Z,69.53
2018-04-13T05:50:42.974Z,69.40
2018-04-13T05:53:11.174Z,69.34
2018-04-13T05:55:38.810Z,69.24
2018-04-13T05:58:06.475Z,69.12
2018-04-13T06:00:34.233Z,69.08
2018-04-13T06:03:01.851Z,69.05
2018-04-13T06:05:29.519Z,68.93
2018-04-13T06:07:57.323Z,68.73
2018-04-13T06:10:24.999Z,68.73
2018-04-13T06:12:52.639Z,68.67
2018-04-13T06:15:20.263Z,68.68
2018-04-13T06:17:47.902Z,68.67
2018-04-13T06:20:15.523Z,68.64
2018-04-13T06:22:43.158Z,68.54
2018-04-13T06:25:10.860Z,68.55
2018-04-13T06:27:38.505Z,68.61
2018-04-13T06:30:06.190Z,68.56
2018-04-13T06:32:33.835Z,68.54
2018-04-13T06:35:01.454Z,68.44
2018-04-13T06:37:29.103Z,68.31
2018-04-13T06:39:56.811Z,68.15
2018-04-13T06:42:24.502Z,68.13
2018-04-13T06:44:52.166Z,68.08
2018-04-13T06:47:19.806Z,67.99
2018-04-13T06:49:47.424Z,68.03
2018-04-13T06:52:15.154Z,68.13
2018-04-13T06:54:42.818Z,68.15
2018-04-13T06:57:10.454Z,68.17
2018-04-13T06:59:38.074Z,68.05
2018-04-13T07:02:05.807Z,68.01
2018-04-13T07:04:33.471Z,67.91
2018-04-13T07:07:01.106Z,67.88
2018-04-13T07:09:28.727Z,67.87
2018-04-13T07:11:56.459Z,67.47
2018-04-13T07:14:24.074Z,67.12
2018-04-13T07:16:51.711Z,66.86
2018-04-13T07:19:19.358Z,66.60
2018-04-13T07:21:47.007Z,66.50
2018-04-13T07:24:14.660Z,66.48
2018-04-13T07:26:42.284Z,66.38
2018-04-13T07:29:09.929Z,66.42
2018-04-13T07:31:37.655Z,66.34
2018-04-13T07:34:05.322Z,66.26
2018-04-13T07:36:32.946Z,66.29
2018-04-13T07:39:00.582Z,66.29
2018-04-13T07:41:28.306Z,66.18
2018-04-13T07:43:55.942Z,66.08
2018-04-13T07:46:23.558Z,66.07
2018-04-13T07:48:51.196Z,66.00
2018-04-13T07:51:18.813Z,65.89
2018-04-13T07:53:46.510Z,65.84
2018-04-13T07:56:14.123Z,65.88
2018-04-13T07:58:41.763Z,65.93
2018-04-13T08:01:09.378Z,65.77
2018-04-13T08:03:37.018Z,65.60
2018-04-13T08:06:04.630Z,65.48
2018-04-13T08:08:32.521Z,65.53
2018-04-13T08:10:59.907Z,65.23
2018-04-13T08:13:27.575Z,64.91
2018-04-13T08:15:55.283Z,64.43
2018-04-13T08:18:22.922Z,64.30
2018-04-13T08:20:50.603Z,63.61
2018-04-13T08:23:18.281Z,63.28
2018-04-13T08:25:45.887Z,62.97
2018-04-13T08:28:13.527Z,62.85
2018-04-13T08:30:41.229Z,62.35
2018-04-13T08:33:08.914Z,61.95
2018-04-13T08:35:36.667Z,61.72
2018-04-13T08:38:04.194Z,61.49
2018-04-13T08:40:31.911Z,61.52
2018-04-13T08:42:59.535Z,61.51
2018-04-13T08:45:27.194Z,61.32
2018-04-13T08:47:54.814Z,61.25
2018-04-13T08:50:24.194Z,60.64
2018-04-13T08:52:51.865Z,60.29
2018-04-13T08:55:19.519Z,59.98
2018-04-13T08:57:47.286Z,59.62
2018-04-13T09:00:14.939Z,58.75
2018-04-13T09:02:42.608Z,58.33
2018-04-13T09:05:10.279Z,57.82
2018-04-13T09:07:37.934Z,57.61
2018-04-13T09:10:05.572Z,57.33
2018-04-13T09:12:33.214Z,57.42
2018-04-13T09:15:00.859Z,57.66
2018-04-13T09:17:28.476Z,57.26
2018-04-13T09:19:56.128Z,57.14
2018-04-13T09:22:23.813Z,56.99
2018-04-13T09:24:51.458Z,57.05
2018-04-13T09:27:19.139Z,56.79
2018-04-13T09:29:46.786Z,56.51
2018-04-13T09:32:14.459Z,56.33
2018-04-13T09:34:42.094Z,56.42
2018-04-13T09:37:09.784Z,56.70
2018-04-13T09:39:37.443Z,56.39
2018-04-13T09:42:05.063Z,56.21
2018-04-13T09:44:32.677Z,55.93
2018-04-13T09:47:00.328Z,55.89
2018-04-13T09:49:27.939Z,56.06
2018-04-13T09:51:55.580Z,55.84
2018-04-13T09:54:23.191Z,55.96
2018-04-13T09:56:50.828Z,55.85
2018-04-13T09:59:18.544Z,55.47
2018-04-13T10:01:46.187Z,55.54
2018-04-13T10:04:13.804Z,55.22
2018-04-13T10:06:41.448Z,55.11
2018-04-13T10:09:09.083Z,55.48
2018-04-13T10:11:36.754Z,55.26
2018-04-13T10:14:04.378Z,54.80
2018-04-13T10:16:32.015Z,54.84
2018-04-13T10:18:59.742Z,55.14
2018-04-13T10:21:27.381Z,55.02
2018-04-13T10:23:55.062Z,54.76
2018-04-13T10:26:22.731Z,54.49
2018-04-13T10:28:50.355Z,54.74
2018-04-13T10:31:18.003Z,54.25
2018-04-13T10:33:45.614Z,53.99
2018-04-13T10:36:13.259Z,53.63
2018-04-13T10:38:40.947Z,53.51
2018-04-13T10:41:08.699Z,53.16
2018-04-13T10:43:36.311Z,52.84
2018-04-13T10:46:04.034Z,52.73
2018-04-13T10:48:31.651Z,52.60
2018-04-13T10:50:59.451Z,52.87
2018-04-13T10:53:27.102Z,52.78
2018-04-13T10:55:54.717Z,52.71
2018-04-13T10:58:22.371Z,53.03
2018-04-13T11:00:49.998Z,52.62
2018-04-13T11:03:17.639Z,52.52
2018-04-13T11:05:45.330Z,52.41
2018-04-13T11:08:12.966Z,52.52
2018-04-13T11:10:40.583Z,52.39
2018-04-13T11:13:08.218Z,52.16
2018-04-13T11:15:35.835Z,51.99
2018-04-13T11:18:03.466Z,51.86
2018-04-13T11:20:31.103Z,52.09
2018-04-13T11:22:58.747Z,51.57
2018-04-13T11:25:26.358Z,51.95
2018-04-13T11:27:54.022Z,51.59
2018-04-13T11:30:21.719Z,51.61
2018-04-13T11:32:49.355Z,51.79
2018-04-13T11:35:17.081Z,52.14
2018-04-13T11:37:44.718Z,52.23
2018-04-13T11:40:12.331Z,51.89
2018-04-13T11:42:40.067Z,51.87
2018-04-13T11:45:07.726Z,51.57
2018-04-13T11:47:35.391Z,51.30
2018-04-13T11:50:03.062Z,51.02
2018-04-13T11:52:30.698Z,50.77
2018-04-13T11:54:58.388Z,50.75
2018-04-13T11:57:26.030Z,51.25
2018-04-13T11:59:53.798Z,50.79
2018-04-13T12:02:21.443Z,50.62
2018-04-13T12:04:49.068Z,50.41
2018-04-13T12:07:16.736Z,50.21
2018-04-13T12:09:44.379Z,50.09
2018-04-13T12:12:11.994Z,49.88
2018-04-13T12:14:39.637Z,49.43
2018-04-13T12:17:07.344Z,48.81
2018-04-13T12:19:35.012Z,48.65
2018-04-13T12:22:02.675Z,48.12
2018-04-13T12:24:30.314Z,48.11
2018-04-13T12:26:57.994Z,47.72
2018-04-13T12:29:25.779Z,47.08
2018-04-13T12:31:53.395Z,46.87
2018-04-13T12:34:21.051Z,46.54
2018-04-13T12:36:48.695Z,46.72
2018-04-13T12:39:16.410Z,46.99
2018-04-13T12:41:44.080Z,46.73
2018-04-13T12:44:11.758Z,46.03
2018-04-13T12:46:39.376Z,45.84
2018-04-13T12:49:07.027Z,45.76
2018-04-13T12:51:34.644Z,45.50
2018-04-13T12:54:02.293Z,45.67
2018-04-13T12:56:29.970Z,45.52
2018-04-13T12:58:57.611Z,45.67
2018-04-13T13:01:25.226Z,45.63
2018-04-13T13:03:52.863Z,45.38
2018-04-13T13:06:20.488Z,45.53
2018-04-13T13:08:48.143Z,45.21
2018-04-13T13:11:15.766Z,44.82
2018-04-13T13:13:43.483Z,44.86
2018-04-13T13:16:11.098Z,45.05
2018-04-13T13:18:38.738Z,44.78
2018-04-13T13:21:06.346Z,45.14
2018-04-13T13:23:33.963Z,45.05
2018-04-13T13:26:01.598Z,45.23
2018-04-13T13:28:29.218Z,45.45
2018-04-13T13:30:56.862Z,45.15
2018-04-13T13:33:24.480Z,45.20
2018-04-13T13:35:52.144Z,45.17
2018-04-13T13:38:19.762Z,44.70
2018-04-13T13:40:47.462Z,45.02
2018-04-13T13:43:15.222Z,45.19
2018-04-13T13:45:42.854Z,45.00
2018-04-13T13:48:10.554Z,44.39
2018-04-13T13:50:38.195Z,44.41
2018-04-13T13:53:05.815Z,44.46
2018-04-13T13:55:33.459Z,44.45
2018-04-13T13:58:01.102Z,44.75
2018-04-13T14:00:28.744Z,44.62
2018-04-13T14:02:56.428Z,44.54
2018-04-13T14:05:24.081Z,44.86
2018-04-13T14:07:51.746Z,45.01
2018-04-13T14:10:19.419Z,44.86
2018-04-13T14:12:47.072Z,44.92
2018-04-13T14:15:14.711Z,44.38
2018-04-13T14:17:42.332Z,44.30
2018-04-13T14:20:10.064Z,44.24
2018-04-13T14:22:37.686Z,44.00
2018-04-13T14:25:05.332Z,44.04
2018-04-13T14:27:32.946Z,44.13
2018-04-13T14:30:00.598Z,43.92
2018-04-13T14:32:28.236Z,43.08
2018-04-13T14:34:55.861Z,42.98
2018-04-13T14:37:23.511Z,42.96
2018-04-13T14:39:51.127Z,42.58
2018-04-13T14:42:18.831Z,42.57
2018-04-13T14:44:46.501Z,42.58
2018-04-13T14:47:14.158Z,42.25
2018-04-13T14:49:41.789Z,42.24
2018-04-13T14:52:09.572Z,42.27
2018-04-13T14:54:37.200Z,42.25
2018-04-13T14:57:04.848Z,42.12
2018-04-13T14:59:32.472Z,42.05
2018-04-13T15:02:00.221Z,42.10
2018-04-13T15:04:27.848Z,42.41
2018-04-13T15:06:55.566Z,42.73
2018-04-13T15:09:23.205Z,42.71
2018-04-13T15:11:50.873Z,42.92
2018-04-13T15:14:18.550Z,43.13
2018-04-13T15:16:46.194Z,43.36
2018-04-13T15:19:13.811Z,43.66
2018-04-13T15:21:41.451Z,44.05
2018-04-13T15:24:09.071Z,44.05
2018-04-13T15:26:36.708Z,44.03
2018-04-13T15:29:04.324Z,44.16
2018-04-13T15:31:31.963Z,44.08
2018-04-13T15:33:59.578Z,44.93
2018-04-13T15:36:27.219Z,46.37
2018-04-13T15:38:54.839Z,47.39
2018-04-13T15:41:22.483Z,48.08
2018-04-13T15:43:50.094Z,48.89
2018-04-13T15:46:17.707Z,50.31
2018-04-13T15:48:45.432Z,50.84
2018-04-13T15:51:13.051Z,51.35
2018-04-13T15:53:40.691Z,53.26
2018-04-13T15:56:08.395Z,55.83
2018-04-13T15:58:36.039Z,57.80
2018-04-13T16:01:03.718Z,59.42
2018-04-13T16:03:31.379Z,60.37
2018-04-13T16:05:58.999Z,60.91
2018-04-13T16:08:26.716Z,62.40
2018-04-13T16:10:54.369Z,63.64
2018-04-13T16:13:22.020Z,64.04
2018-04-13T16:15:49.647Z,64.22
2018-04-13T16:18:17.286Z,64.38
2018-04-13T16:20:44.918Z,64.48
2018-04-13T16:23:12.572Z,64.63
2018-04-13T16:25:40.245Z,65.93
2018-04-13T16:28:07.882Z,65.95
2018-04-13T16:30:35.571Z,66.56
2018-04-13T16:33:04.060Z,66.77
2018-04-13T16:35:31.683Z,67.50
2018-04-13T16:37:59.331Z,67.76
2018-04-13T16:40:26.950Z,67.99
2018-04-13T16:42:54.601Z,68.25
2018-04-13T16:45:22.262Z,67.26
2018-04-13T16:47:49.922Z,67.83
2018-04-13T16:50:17.542Z,69.03
2018-04-13T16:52:45.202Z,70.28
2018-04-13T16:55:12.821Z,71.14
2018-04-13T16:57:40.434Z,71.34
2018-04-13T17:00:08.087Z,70.88
2018-04-13T17:02:35.794Z,70.11
2018-04-13T17:05:03.459Z,71.34
2018-04-13T17:07:31.124Z,70.90
2018-04-13T17:09:58.769Z,69.90
2018-04-13T17:12:26.395Z,70.57
2018-04-13T17:14:54.035Z,71.45
2018-04-13T17:17:21.656Z,71.63
2018-04-13T17:19:49.527Z,71.65
2018-04-13T17:22:17.393Z,71.56
2018-04-13T17:24:45.590Z,71.81
2018-04-13T17:27:13.208Z,71.84
2018-04-13T17:29:40.899Z,71.24
2018-04-13T17:32:09.155Z,70.82
2018-04-13T17:34:36.790Z,70.95
2018-04-13T17:37:04.410Z,70.46
2018-04-13T17:39:32.055Z,70.22
2018-04-13T17:41:59.675Z,68.60
2018-04-13T17:44:27.319Z,68.91
2018-04-13T17:46:55.009Z,68.51
2018-04-13T17:49:22.615Z,68.46
2018-04-13T17:51:50.231Z,67.93
2018-04-13T17:54:17.876Z,67.80
2018-04-13T17:56:45.494Z,68.57
2018-04-13T17:59:13.150Z,68.97
2018-04-13T18:01:40.823Z,69.30
2018-04-13T18:04:08.486Z,69.70
2018-04-13T18:06:36.191Z,70.29
2018-04-13T18:09:03.854Z,70.91
2018-04-13T18:11:31.580Z,71.55
2018-04-13T18:13:59.223Z,72.32
2018-04-13T18:16:26.997Z,72.76
2018-04-13T18:18:54.758Z,73.38
2018-04-13T18:21:22.431Z,73.75
2018-04-13T18:23:50.047Z,74.25
2018-04-13T18:26:17.786Z,74.61
2018-04-13T18:28:45.411Z,75.09
2018-04-13T18:31:13.358Z,75.29
2018-04-13T18:33:41.159Z,75.49
2018-04-13T18:36:08.766Z,75.75
2018-04-13T18:38:36.475Z,75.87
2018-04-13T18:41:04.120Z,75.91
2018-04-13T18:43:31.808Z,75.87
2018-04-13T18:45:59.467Z,75.88
2018-04-13T18:48:27.137Z,76.09
2018-04-13T18:50:54.776Z,76.32
2018-04-13T18:53:22.391Z,76.62
2018-04-13T18:55:50.121Z,76.98
2018-04-13T18:58:17.761Z,77.25
2018-04-13T19:00:45.595Z,77.36
2018-04-13T19:03:13.471Z,77.41
2018-04-13T19:05:41.174Z,77.48
2018-04-13T19:08:08.847Z,77.53
2018-04-13T19:10:36.563Z,77.46
2018-04-13T19:13:04.428Z,77.54
2018-04-13T19:15:32.074Z,77.55
2018-04-13T19:17:59.715Z,77.55
2018-04-13T19:20:27.373Z,77.40
2018-04-13T19:22:55.125Z,77.44
2018-04-13T19:25:22.832Z,77.29
2018-04-13T19:27:50.643Z,77.21
2018-04-13T19:30:18.270Z,77.25
2018-04-13T19:32:46.042Z,77.23
2018-04-13T19:35:13.655Z,77.15
2018-04-13T19:37:41.403Z,77.13
2018-04-13T19:40:09.067Z,77.13
2018-04-13T19:42:36.707Z,77.10
2018-04-13T19:45:04.327Z,77.06
2018-04-13T19:47:32.059Z,77.07
2018-04-13T19:49:59.719Z,77.02
2018-04-13T19:52:27.430Z,77.14
2018-04-13T19:54:55.048Z,77.10
2018-04-13T19:57:22.706Z,77.06
2018-04-13T19:59:50.327Z,77.08
2018-04-13T20:02:17.963Z,77.04
2018-04-13T20:04:45.574Z,77.07
2018-04-13T20:07:13.314Z,77.24
2018-04-13T20:09:41.027Z,77.40
2018-04-13T20:12:08.644Z,77.19
2018-04-13T20:14:36.339Z,76.99
2018-04-13T20:17:04.004Z,76.69
2018-04-13T20:19:31.647Z,76.67
2018-04-13T20:21:59.266Z,76.78
2018-04-13T20:24:26.990Z,77.09
2018-04-13T20:26:54.655Z,77.24
2018-04-13T20:29:22.295Z,77.19
2018-04-13T20:31:49.910Z,77.18
2018-04-13T20:34:17.547Z,77.27
2018-04-13T20:36:45.203Z,77.55
2018-04-13T20:39:12.848Z,77.73
2018-04-13T20:41:40.528Z,77.82
2018-04-13T20:44:08.166Z,78.04
2018-04-13T20:46:35.783Z,78.28
2018-04-13T20:49:03.421Z,78.61
2018-04-13T20:51:31.039Z,78.34
2018-04-13T20:53:58.684Z,78.13
2018-04-13T20:56:26.302Z,78.01
2018-04-13T20:58:53.967Z,78.18
2018-04-13T21:01:21.622Z,78.33
2018-04-13T21:03:49.266Z,78.67
2018-04-13T21:06:16.887Z,78.92
2018-04-13T21:08:44.507Z,79.08
2018-04-13T21:11:12.143Z,79.25
2018-04-13T21:13:39.763Z,79.42
2018-04-13T21:16:07.399Z,79.56
2018-04-13T21:18:35.018Z,79.63
2018-04-13T21:21:02.723Z,79.56
2018-04-13T21:23:30.339Z,79.41
2018-04-13T21:25:57.976Z,79.29
2018-04-13T21:28:25.707Z,79.37
2018-04-13T21:30:53.375Z,79.19
2018-04-13T21:33:20.991Z,79.25
2018-04-13T21:35:48.697Z,79.37
2018-04-13T21:38:16.359Z,79.28
2018-04-13T21:40:44.019Z,79.15
2018-04-13T21:43:11.631Z,79.24
2018-04-13T21:45:39.267Z,79.25
2018-04-13T21:48:06.892Z,79.07
2018-04-13T21:50:34.527Z,79.04
2018-04-13T21:53:02.232Z,78.99
2018-04-13T21:55:29.894Z,79.11
2018-04-13T21:57:57.562Z,78.99
2018-04-13T22:00:25.198Z,79.02
2018-04-13T22:02:52.816Z,79.08
2018-04-13T22:05:20.459Z,79.16
2018-04-13T22:07:48.103Z,79.26
2018-04-13T22:10:15.768Z,79.32
2018-04-13T22:12:55.307Z,79.42
2018-04-13T22:15:26.723Z,79.52
2018-04-13T22:17:54.351Z,79.61
2018-04-13T22:20:21.963Z,79.54
2018-04-13T22:22:49.615Z,79.36
2018-04-13T22:25:17.234Z,79.31
2018-04-13T22:27:44.879Z,79.31
2018-04-13T22:30:12.527Z,79.29
2018-04-13T22:32:40.167Z,79.20
2018-04-13T22:35:07.784Z,79.19
2018-04-13T22:37:35.519Z,79.20
2018-04-13T22:40:03.136Z,79.16
2018-04-13T22:42:30.799Z,79.19
2018-04-13T22:44:58.511Z,79.22
2018-04-13T22:47:26.147Z,79.23
2018-04-13T22:49:53.758Z,79.20
2018-04-13T22:52:21.395Z,79.11
2018-04-13T22:54:49.007Z,78.98
2018-04-13T22:57:16.715Z,78.89
2018-04-13T22:59:44.335Z,78.86
2018-04-13T23:02:11.974Z,78.77
2018-04-13T23:04:39.608Z,78.99
2018-04-13T23:07:07.271Z,79.07
2018-04-13T23:09:34.889Z,79.27
2018-04-13T23:12:02.531Z,79.42
2018-04-13T23:14:30.251Z,79.58
2018-04-13T23:16:57.917Z,79.88
2018-04-13T23:19:25.530Z,80.07
2018-04-13T23:21:53.238Z,80.35
2018-04-13T23:24:20.855Z,80.74
2018-04-13T23:26:48.496Z,81.08
2018-04-13T23:29:16.222Z,81.27
2018-04-13T23:31:43.859Z,81.69
2018-04-13T23:34:11.495Z,82.02
2018-04-13T23:36:39.215Z,82.17
2018-04-13T23:39:06.874Z,82.22
2018-04-13T23:41:34.499Z,82.18
2018-04-13T23:44:02.138Z,82.10
2018-04-13T23:46:29.753Z,82.08
2018-04-13T23:48:57.390Z,81.71
2018-04-13T23:51:25.015Z,81.41
2018-04-13T23:53:52.658Z,81.08
2018-04-13T23:56:20.270Z,80.88
2018-04-13T23:58:47.926Z,80.79
